createdAt,value
2019-01-17T00:00:40.425Z,16.77
2019-01-17T00:03:25.865Z,15.17
2019-01-17T00:06:25.746Z,14.77
2019-01-17T00:09:21.515Z,14.43
2019-01-17T00:11:58.323Z,16.47
2019-01-17T00:14:45.112Z,16.47
2019-01-17T00:17:30.370Z,16.43
2019-01-17T00:20:15.943Z,17.17
2019-01-17T00:23:01.601Z,18.20
2019-01-17T00:25:46.015Z,16.10
2019-01-17T00:28:44.937Z,15.30
2019-01-17T00:31:33.810Z,16.13
2019-01-17T00:34:21.921Z,16.37
2019-01-17T00:37:01.282Z,16.40
2019-01-17T00:39:41.425Z,16.43
2019-01-17T00:42:26.970Z,16.53
2019-01-17T00:45:25.813Z,15.77
2019-01-17T00:48:24.524Z,16.50
2019-01-17T00:51:17.215Z,16.37
2019-01-17T00:54:08.947Z,17.23
2019-01-17T00:57:06.492Z,16.07
2019-01-17T00:59:50.684Z,16.77
2019-01-17T01:02:52.354Z,17.20
2019-01-17T01:06:11.402Z,17.10
2019-01-17T01:09:13.162Z,16.17
2019-01-17T01:12:11.718Z,17.10
2019-01-17T01:14:44.968Z,15.50
2019-01-17T01:17:27.956Z,17.60
2019-01-17T01:20:13.547Z,16.37
2019-01-17T01:22:59.729Z,17.77
2019-01-17T01:26:04.552Z,18.20
2019-01-17T01:28:57.002Z,18.17
2019-01-17T01:31:35.886Z,20.33
2019-01-17T01:34:21.339Z,21.50
2019-01-17T01:37:09.916Z,19.63
2019-01-17T01:39:59.599Z,20.10
2019-01-17T01:42:45.005Z,18.07
2019-01-17T01:45:29.606Z,17.73
2019-01-17T01:48:28.433Z,16.97
2019-01-17T01:51:20.898Z,17.87
2019-01-17T01:53:48.091Z,17.07
2019-01-17T01:56:15.135Z,15.90
2019-01-17T01:58:42.181Z,15.23
2019-01-17T02:01:09.256Z,15.83
2019-01-17T02:03:36.399Z,13.83
2019-01-17T02:06:03.864Z,14.73
2019-01-17T02:08:30.951Z,14.77
2019-01-17T02:10:58.021Z,15.60
2019-01-17T02:13:25.153Z,13.43
2019-01-17T02:15:52.247Z,15.53
2019-01-17T02:18:19.281Z,15.13
2019-01-17T02:20:46.336Z,14.63
2019-01-17T02:23:13.405Z,14.60
2019-01-17T02:25:40.487Z,14.43
2019-01-17T02:28:07.630Z,12.93
2019-01-17T02:30:56.869Z,13.23
2019-01-17T02:33:23.909Z,12.87
2019-01-17T02:35:51.212Z,11.33
2019-01-17T02:38:18.287Z,12.17
2019-01-17T02:40:45.435Z,12.00
2019-01-17T02:43:12.522Z,11.33
2019-01-17T02:45:39.604Z,11.77
2019-01-17T02:48:06.646Z,11.47
2019-01-17T02:50:33.685Z,12.23
2019-01-17T02:53:00.855Z,12.23
2019-01-17T02:55:27.885Z,12.70
2019-01-17T02:57:55.045Z,13.37
2019-01-17T03:00:22.125Z,13.60
2019-01-17T03:02:49.379Z,15.73
2019-01-17T03:05:16.433Z,16.20
2019-01-17T03:07:43.524Z,17.60
2019-01-17T03:10:17.066Z,20.13
2019-01-17T03:12:44.100Z,21.63
2019-01-17T03:15:11.277Z,23.60
2019-01-17T03:17:38.443Z,23.20
2019-01-17T03:20:06.367Z,24.70
2019-01-17T03:22:33.423Z,23.63
2019-01-17T03:25:00.474Z,24.83
2019-01-17T03:27:27.523Z,24.20
2019-01-17T03:29:54.623Z,25.07
2019-01-17T03:32:21.672Z,26.80
2019-01-17T03:34:48.758Z,24.83
2019-01-17T03:37:15.829Z,25.47
2019-01-17T03:39:42.964Z,26.20
2019-01-17T03:42:10.013Z,25.03
2019-01-17T03:44:37.096Z,24.70
2019-01-17T03:47:04.147Z,22.73
2019-01-17T03:49:31.176Z,23.27
2019-01-17T03:51:58.228Z,25.63
2019-01-17T03:54:25.270Z,22.17
2019-01-17T03:56:52.760Z,24.37
2019-01-17T03:59:19.804Z,22.43
2019-01-17T04:01:46.841Z,23.60
2019-01-17T04:04:13.977Z,23.57
2019-01-17T04:06:41.016Z,23.60
2019-01-17T04:09:08.078Z,21.90
2019-01-17T04:11:36.276Z,23.00
2019-01-17T04:14:05.084Z,22.43
2019-01-17T04:16:32.140Z,21.07
2019-01-17T04:18:59.216Z,23.37
2019-01-17T04:21:26.287Z,22.70
2019-01-17T04:23:53.338Z,22.27
2019-01-17T04:26:20.397Z,22.93
2019-01-17T04:28:47.511Z,20.93
2019-01-17T04:31:14.568Z,21.57
2019-01-17T04:33:41.674Z,23.10
2019-01-17T04:36:08.704Z,23.63
2019-01-17T04:38:35.727Z,23.53
2019-01-17T04:41:02.786Z,23.77
2019-01-17T04:43:29.825Z,23.80
2019-01-17T04:45:57.213Z,23.57
2019-01-17T04:48:24.277Z,24.37
2019-01-17T04:50:51.479Z,23.83
2019-01-17T04:53:18.534Z,24.17
2019-01-17T04:55:45.627Z,22.70
2019-01-17T04:58:12.741Z,22.93
2019-01-17T05:00:39.789Z,24.63
2019-01-17T05:03:06.883Z,22.77
2019-01-17T05:05:33.909Z,23.60
2019-01-17T05:08:00.956Z,23.87
2019-01-17T05:10:28.021Z,24.83
2019-01-17T05:12:55.048Z,24.27
2019-01-17T05:15:22.219Z,23.57
2019-01-17T05:17:49.297Z,25.03
2019-01-17T05:20:16.350Z,25.67
2019-01-17T05:22:43.395Z,24.73
2019-01-17T05:25:12.651Z,24.93
2019-01-17T05:27:40.097Z,26.13
2019-01-17T05:30:17.806Z,25.17
2019-01-17T05:32:44.826Z,26.03
2019-01-17T05:35:12.168Z,25.93
2019-01-17T05:37:39.479Z,24.97
2019-01-17T05:43:33.395Z,26.17
2019-01-17T05:46:00.446Z,26.70
2019-01-17T05:48:27.488Z,25.80
2019-01-17T05:50:54.570Z,26.90
2019-01-17T05:53:21.632Z,26.20
2019-01-17T05:55:48.675Z,25.90
2019-01-17T05:58:15.745Z,24.50
2019-01-17T06:00:42.896Z,23.63
2019-01-17T06:03:47.890Z,24.83
2019-01-17T06:06:15.043Z,23.07
2019-01-17T06:08:42.136Z,23.27
2019-01-17T06:11:09.218Z,23.07
2019-01-17T06:13:36.262Z,23.13
2019-01-17T06:16:03.684Z,22.43
2019-01-17T06:18:31.291Z,21.73
2019-01-17T06:20:58.305Z,19.63
2019-01-17T06:23:25.353Z,20.57
2019-01-17T06:25:52.432Z,21.30
2019-01-17T06:28:19.498Z,20.27
2019-01-17T06:30:46.540Z,20.17
2019-01-17T06:33:13.683Z,18.90
2019-01-17T06:35:40.734Z,19.70
2019-01-17T06:38:07.796Z,18.90
2019-01-17T06:40:34.864Z,19.00
2019-01-17T06:43:01.962Z,18.73
2019-01-17T06:45:29.029Z,18.50
2019-01-17T06:47:56.107Z,18.37
2019-01-17T06:50:23.261Z,17.40
2019-01-17T06:52:50.322Z,18.37
2019-01-17T06:55:17.562Z,18.50
2019-01-17T06:57:44.711Z,18.63
2019-01-17T07:00:13.434Z,19.87
2019-01-17T07:02:40.518Z,20.43
2019-01-17T07:05:07.925Z,20.53
2019-01-17T07:07:35.076Z,18.30
2019-01-17T07:10:03.098Z,20.43
2019-01-17T07:12:30.178Z,20.10
2019-01-17T07:14:57.225Z,20.17
2019-01-17T07:17:24.344Z,19.87
2019-01-17T07:19:51.368Z,18.20
2019-01-17T07:22:18.526Z,17.37
2019-01-17T07:24:45.638Z,17.53
2019-01-17T07:27:12.699Z,16.93
2019-01-17T07:29:39.790Z,16.53
2019-01-17T07:32:06.847Z,17.63
2019-01-17T07:34:33.879Z,15.50
2019-01-17T07:37:00.904Z,16.77
2019-01-17T07:39:28.020Z,17.90
2019-01-17T07:41:55.054Z,17.30
2019-01-17T07:44:22.240Z,17.23
2019-01-17T07:46:49.318Z,17.23
2019-01-17T07:49:16.346Z,16.73
2019-01-17T07:51:43.387Z,16.27
2019-01-17T07:54:10.471Z,17.07
2019-01-17T07:56:37.514Z,17.60
2019-01-17T07:59:04.566Z,17.17
2019-01-17T08:01:31.645Z,17.57
2019-01-17T08:03:58.835Z,17.47
2019-01-17T08:06:25.876Z,17.37
2019-01-17T08:08:53.126Z,18.50
2019-01-17T08:11:20.260Z,17.77
2019-01-17T08:13:47.307Z,19.53
2019-01-17T08:16:14.377Z,19.47
2019-01-17T08:18:41.449Z,19.90
2019-01-17T08:21:08.504Z,18.47
2019-01-17T08:23:35.600Z,21.07
2019-01-17T08:26:02.739Z,20.13
2019-01-17T08:28:29.869Z,21.50
2019-01-17T08:30:56.938Z,20.53
2019-01-17T08:33:23.979Z,21.53
2019-01-17T08:35:51.097Z,21.33
2019-01-17T08:38:18.120Z,20.07
2019-01-17T08:40:45.172Z,20.80
2019-01-17T08:43:12.234Z,20.77
2019-01-17T08:45:39.329Z,19.70
2019-01-17T08:48:06.362Z,19.37
2019-01-17T08:50:33.591Z,19.30
2019-01-17T08:53:01.418Z,19.30
2019-01-17T08:55:28.490Z,20.07
2019-01-17T08:57:55.680Z,18.60
2019-01-17T09:00:23.709Z,19.47
2019-01-17T09:03:10.461Z,18.43
2019-01-17T09:05:37.519Z,19.00
2019-01-17T09:08:04.648Z,17.17
2019-01-17T09:10:31.857Z,15.73
2019-01-17T09:12:58.903Z,13.47
2019-01-17T09:15:28.550Z,11.23
2019-01-17T09:17:55.648Z,10.47
2019-01-17T09:20:22.691Z,11.50
2019-01-17T09:22:49.719Z,11.40
2019-01-17T09:25:16.847Z,11.60
2019-01-17T09:27:44.044Z,10.57
2019-01-17T09:30:13.898Z,10.17
2019-01-17T09:32:41.101Z,9.47
2019-01-17T09:35:09.559Z,8.40
2019-01-17T09:37:37.338Z,9.47
2019-01-17T09:40:06.182Z,8.67
2019-01-17T09:42:33.232Z,5.77
2019-01-17T09:45:00.454Z,5.30
2019-01-17T09:47:27.590Z,5.83
2019-01-17T09:49:54.690Z,5.20
2019-01-17T09:52:21.758Z,5.43
2019-01-17T09:54:48.804Z,6.47
2019-01-17T09:57:15.911Z,6.13
2019-01-17T09:59:42.952Z,6.47
2019-01-17T10:02:10.064Z,6.50
2019-01-17T10:04:37.199Z,6.83
2019-01-17T10:07:04.260Z,6.67
2019-01-17T10:09:31.412Z,6.97
2019-01-17T10:11:58.524Z,6.10
2019-01-17T10:14:25.551Z,6.10
2019-01-17T10:17:46.615Z,6.97
2019-01-17T10:20:51.342Z,5.70
2019-01-17T10:24:08.326Z,6.47
2019-01-17T10:27:05.002Z,6.80
2019-01-17T10:30:12.598Z,6.83
2019-01-17T10:33:06.624Z,7.77
2019-01-17T10:36:21.378Z,7.93
2019-01-17T10:39:25.107Z,6.83
2019-01-17T10:42:49.316Z,7.27
2019-01-17T10:45:45.331Z,7.10
2019-01-17T10:48:54.629Z,6.70
2019-01-17T10:52:18.969Z,6.67
2019-01-17T10:55:18.222Z,7.23
2019-01-17T10:58:22.699Z,6.53
2019-01-17T11:01:33.470Z,3.77
2019-01-17T11:05:08.639Z,3.23
2019-01-17T11:08:12.736Z,2.83
2019-01-17T11:11:11.844Z,2.80
2019-01-17T11:14:11.204Z,3.33
2019-01-17T11:17:19.807Z,2.60
2019-01-17T11:20:06.438Z,3.20
2019-01-17T11:23:07.063Z,3.60
2019-01-17T11:26:10.576Z,3.17
2019-01-17T11:29:13.292Z,3.30
2019-01-17T11:32:07.295Z,4.20
2019-01-17T11:34:59.759Z,4.03
2019-01-17T11:38:05.784Z,3.90
2019-01-17T11:40:49.318Z,3.83
2019-01-17T11:43:45.254Z,3.70
2019-01-17T11:47:21.564Z,3.87
2019-01-17T11:50:09.676Z,3.73
2019-01-17T11:53:07.248Z,2.80
2019-01-17T11:56:11.066Z,3.20
2019-01-17T11:59:31.363Z,3.97
2019-01-17T12:02:41.122Z,3.33
2019-01-17T12:05:11.088Z,3.17
2019-01-17T12:07:38.178Z,4.13
2019-01-17T12:10:06.210Z,3.40
2019-01-17T12:12:33.563Z,3.13
2019-01-17T12:15:00.861Z,3.80
2019-01-17T12:17:27.916Z,3.30
2019-01-17T12:19:55.221Z,3.80
2019-01-17T12:22:22.299Z,3.87
2019-01-17T12:24:49.352Z,3.47
2019-01-17T12:27:16.399Z,3.60
2019-01-17T12:29:43.468Z,3.63
2019-01-17T12:32:10.532Z,3.60
2019-01-17T12:34:37.582Z,3.67
2019-01-17T12:37:04.719Z,4.27
2019-01-17T12:39:31.743Z,3.90
2019-01-17T12:41:58.886Z,3.63
2019-01-17T12:44:25.903Z,3.73
2019-01-17T12:46:52.983Z,3.73
2019-01-17T12:49:20.036Z,3.17
2019-01-17T12:51:47.093Z,2.37
2019-01-17T12:54:14.162Z,3.30
2019-01-17T12:56:41.302Z,3.20
2019-01-17T12:59:08.356Z,3.17
2019-01-17T13:01:35.417Z,3.40
2019-01-17T13:04:02.479Z,3.70
2019-01-17T13:06:29.616Z,3.63
2019-01-17T13:08:56.682Z,3.47
2019-01-17T13:11:23.749Z,3.77
2019-01-17T13:13:50.773Z,3.00
2019-01-17T13:16:17.834Z,3.30
2019-01-17T13:18:44.921Z,3.30
2019-01-17T13:21:15.005Z,2.67
2019-01-17T13:23:42.051Z,2.40
2019-01-17T13:26:09.141Z,2.13
2019-01-17T13:28:36.339Z,2.00
2019-01-17T13:31:03.645Z,2.90
2019-01-17T13:33:30.708Z,2.07
2019-01-17T13:35:58.494Z,2.23
2019-01-17T13:38:25.556Z,2.40
2019-01-17T13:40:52.663Z,2.00
2019-01-17T13:43:19.676Z,1.77
2019-01-17T13:45:46.718Z,2.60
2019-01-17T13:48:13.946Z,2.30
2019-01-17T13:50:40.995Z,2.17
2019-01-17T13:53:08.061Z,2.10
2019-01-17T13:55:35.190Z,2.13
2019-01-17T13:58:02.233Z,1.90
2019-01-17T14:00:29.481Z,1.83
2019-01-17T14:02:56.565Z,1.70
2019-01-17T14:05:23.678Z,2.17
2019-01-17T14:07:50.940Z,1.90
2019-01-17T14:10:18.290Z,2.20
2019-01-17T14:12:45.455Z,1.63
2019-01-17T14:15:27.421Z,3.60
2019-01-17T14:17:54.454Z,2.03
2019-01-17T14:20:21.508Z,2.17
2019-01-17T14:22:48.609Z,1.70
2019-01-17T14:25:15.777Z,2.07
2019-01-17T14:27:43.049Z,1.83
2019-01-17T14:30:14.238Z,2.90
2019-01-17T14:32:41.400Z,2.47
2019-01-17T14:35:08.434Z,1.93
2019-01-17T14:37:35.689Z,1.70
2019-01-17T14:40:03.614Z,2.60
2019-01-17T14:42:30.723Z,2.37
2019-01-17T14:44:59.671Z,1.77
2019-01-17T14:47:26.782Z,2.10
2019-01-17T14:50:14.370Z,2.33
2019-01-17T14:52:41.414Z,2.50
2019-01-17T14:55:08.599Z,2.70
2019-01-17T14:57:35.690Z,2.37
2019-01-17T15:00:04.271Z,2.93
2019-01-17T15:02:31.361Z,2.57
2019-01-17T15:04:58.594Z,2.37
2019-01-17T15:07:25.749Z,2.70
2019-01-17T15:09:52.805Z,3.17
2019-01-17T15:12:19.954Z,2.57
2019-01-17T15:14:47.125Z,2.43
2019-01-17T15:17:14.172Z,2.37
2019-01-17T15:19:41.271Z,2.73
2019-01-17T15:22:08.357Z,1.97
2019-01-17T15:24:35.524Z,2.97
2019-01-17T15:27:02.840Z,4.20
2019-01-17T15:29:30.044Z,3.10
2019-01-17T15:31:57.127Z,3.20
2019-01-17T15:34:24.213Z,2.80
2019-01-17T15:37:01.579Z,2.70
2019-01-17T15:39:28.667Z,3.23
2019-01-17T15:41:56.941Z,2.90
2019-01-17T15:44:24.040Z,3.40
2019-01-17T15:46:51.200Z,3.13
2019-01-17T15:49:18.296Z,2.73
2019-01-17T15:51:45.351Z,3.50
2019-01-17T15:54:12.425Z,2.77
2019-01-17T15:56:39.622Z,2.90
2019-01-17T15:59:06.785Z,2.90
2019-01-17T16:01:33.897Z,2.53
2019-01-17T16:04:01.018Z,3.03
2019-01-17T16:06:28.102Z,2.83
2019-01-17T16:08:55.150Z,3.40
2019-01-17T16:11:22.231Z,2.77
2019-01-17T16:13:49.767Z,2.00
2019-01-17T16:16:17.928Z,2.40
2019-01-17T16:18:45.405Z,2.43
2019-01-17T16:21:12.663Z,2.10
2019-01-17T16:23:39.767Z,2.40
2019-01-17T16:26:06.955Z,2.10
2019-01-17T16:28:34.359Z,1.93
2019-01-17T16:31:01.678Z,1.60
2019-01-17T16:33:28.803Z,1.23
2019-01-17T16:35:56.913Z,2.00
2019-01-17T16:38:24.387Z,1.87
2019-01-17T16:40:51.928Z,1.40
2019-01-17T16:43:19.002Z,2.23
2019-01-17T16:45:46.069Z,1.43
2019-01-17T16:48:13.173Z,2.40
2019-01-17T16:50:40.551Z,2.23
2019-01-17T16:53:07.631Z,1.43
2019-01-17T16:55:34.688Z,2.70
2019-01-17T16:58:01.954Z,2.07
2019-01-17T17:00:41.479Z,2.83
2019-01-17T17:03:09.272Z,1.93
2019-01-17T17:05:36.434Z,2.23
2019-01-17T17:08:03.925Z,2.60
2019-01-17T17:10:31.104Z,1.80
2019-01-17T17:12:58.154Z,1.93
2019-01-17T17:15:25.201Z,2.00
2019-01-17T17:17:52.249Z,2.10
2019-01-17T17:20:19.951Z,2.57
2019-01-17T17:22:46.983Z,3.00
2019-01-17T17:25:14.107Z,2.90
2019-01-17T17:27:41.140Z,3.20
2019-01-17T17:30:13.932Z,3.87
2019-01-17T17:32:41.051Z,3.80
2019-01-17T17:35:08.552Z,4.40
2019-01-17T17:37:35.707Z,4.17
2019-01-17T17:40:04.093Z,4.77
2019-01-17T17:42:31.118Z,4.97
2019-01-17T17:44:58.146Z,5.17
2019-01-17T17:47:25.365Z,4.80
2019-01-17T17:49:52.802Z,4.80
2019-01-17T17:52:19.931Z,5.33
2019-01-17T17:54:47.074Z,6.23
2019-01-17T17:57:14.115Z,6.60
2019-01-17T17:59:41.201Z,7.47
2019-01-17T18:05:50.619Z,8.87
2019-01-17T18:08:17.666Z,8.50
2019-01-17T18:10:45.834Z,7.10
2019-01-17T18:13:12.924Z,9.33
2019-01-17T18:15:39.941Z,9.77
2019-01-17T18:18:07.013Z,10.83
2019-01-17T18:20:34.563Z,10.53
2019-01-17T18:23:01.803Z,10.93
2019-01-17T18:25:29.371Z,10.27
2019-01-17T18:27:56.551Z,11.27
2019-01-17T18:30:23.642Z,12.40
2019-01-17T18:32:50.878Z,12.03
2019-01-17T18:35:18.273Z,13.03
2019-01-17T18:37:45.418Z,13.20
2019-01-17T18:40:13.897Z,14.00
2019-01-17T18:42:41.216Z,14.13
2019-01-17T18:45:10.659Z,13.73
2019-01-17T18:47:37.739Z,14.13
2019-01-17T18:50:07.058Z,14.60
2019-01-17T18:56:33.237Z,15.47
2019-01-17T18:59:00.278Z,15.30
2019-01-17T19:01:27.328Z,15.93
2019-01-17T19:03:54.530Z,14.23
2019-01-17T19:06:21.606Z,15.57
2019-01-17T19:08:48.668Z,14.97
2019-01-17T19:11:15.735Z,14.83
2019-01-17T19:13:42.835Z,16.43
2019-01-17T19:16:09.915Z,16.80
2019-01-17T19:18:37.063Z,17.73
2019-01-17T19:21:04.207Z,18.33
2019-01-17T19:23:31.267Z,19.50
2019-01-17T19:25:58.519Z,20.47
2019-01-17T19:28:25.564Z,20.23
2019-01-17T19:30:53.878Z,20.83
2019-01-17T19:33:21.058Z,20.03
2019-01-17T19:35:48.121Z,18.67
2019-01-17T19:38:15.174Z,20.30
2019-01-17T19:40:42.321Z,18.63
2019-01-17T19:43:09.383Z,20.70
2019-01-17T19:45:36.442Z,18.63
2019-01-17T19:48:03.637Z,17.67
2019-01-17T19:50:35.611Z,19.33
2019-01-17T19:53:03.593Z,17.97
2019-01-17T19:55:30.676Z,19.00
2019-01-17T19:58:05.417Z,18.80
2019-01-17T20:00:32.459Z,18.17
2019-01-17T20:02:59.556Z,15.43
2019-01-17T20:05:28.238Z,14.60
2019-01-17T20:07:55.338Z,14.20
2019-01-17T20:10:24.739Z,15.63
2019-01-17T20:12:51.893Z,14.00
2019-01-17T20:15:19.337Z,15.47
2019-01-17T20:17:46.525Z,15.30
2019-01-17T20:20:14.375Z,13.60
2019-01-17T20:22:41.440Z,14.00
2019-01-17T20:25:09.156Z,11.93
2019-01-17T20:27:36.332Z,11.23
2019-01-17T20:30:07.493Z,9.20
2019-01-17T20:32:34.821Z,9.40
2019-01-17T20:35:02.038Z,8.30
2019-01-17T20:37:29.171Z,7.73
2019-01-17T20:39:56.343Z,6.03
2019-01-17T20:42:23.539Z,5.23
2019-01-17T20:44:50.853Z,4.57
2019-01-17T20:47:18.055Z,3.70
2019-01-17T20:49:45.123Z,3.03
2019-01-17T20:52:13.529Z,3.57
2019-01-17T20:55:00.317Z,3.10
2019-01-17T20:57:27.445Z,2.83
2019-01-17T20:59:54.599Z,3.07
2019-01-17T21:02:21.771Z,2.77
2019-01-17T21:04:50.400Z,3.20
2019-01-17T21:07:17.485Z,3.93
2019-01-17T21:09:44.566Z,4.53
2019-01-17T21:12:11.737Z,5.33
2019-01-17T21:14:39.123Z,5.87
2019-01-17T21:17:06.293Z,6.10
2019-01-17T21:19:33.384Z,6.13
2019-01-17T21:22:00.451Z,7.07
2019-01-17T21:25:23.089Z,7.80
2019-01-17T21:27:50.172Z,9.00
2019-01-17T21:30:19.619Z,11.77
2019-01-17T21:32:46.702Z,12.90
2019-01-17T21:35:13.805Z,13.77
2019-01-17T21:37:40.854Z,13.40
2019-01-17T21:40:10.523Z,15.53
2019-01-17T21:42:37.799Z,16.63
2019-01-17T21:45:07.486Z,16.10
2019-01-17T21:47:34.529Z,18.23
2019-01-17T21:50:03.519Z,18.63
2019-01-17T21:52:30.599Z,17.60
2019-01-17T21:54:57.650Z,17.80
2019-01-17T21:57:24.714Z,16.93
2019-01-17T21:59:51.883Z,17.80
2019-01-17T22:02:18.919Z,16.53
2019-01-17T22:04:46.044Z,15.77
2019-01-17T22:07:13.180Z,16.97
2019-01-17T22:09:40.382Z,16.17
2019-01-17T22:12:07.469Z,16.57
2019-01-17T22:14:34.579Z,15.03
2019-01-17T22:17:01.636Z,14.07
2019-01-17T22:19:28.692Z,15.70
2019-01-17T22:25:48.510Z,13.00
2019-01-17T22:28:15.544Z,12.83
2019-01-17T22:30:42.878Z,13.77
2019-01-17T22:33:09.958Z,12.03
2019-01-17T22:35:37.070Z,12.73
2019-01-17T22:38:04.165Z,12.33
2019-01-17T22:40:31.352Z,11.37
2019-01-17T22:42:58.410Z,10.50
2019-01-17T22:45:28.072Z,13.57
2019-01-17T22:47:55.148Z,13.10
2019-01-17T22:50:22.203Z,11.77
2019-01-17T22:52:49.478Z,12.60
2019-01-17T22:55:16.598Z,13.23
2019-01-17T22:57:43.857Z,16.63
2019-01-17T23:00:22.094Z,15.03
2019-01-17T23:02:49.412Z,16.83
2019-01-17T23:05:16.582Z,15.10
2019-01-17T23:07:50.201Z,15.80
2019-01-17T23:10:17.475Z,16.47
2019-01-17T23:12:44.522Z,15.00
2019-01-17T23:15:11.635Z,16.33
2019-01-17T23:17:38.659Z,14.10
2019-01-17T23:20:06.566Z,15.73
2019-01-17T23:22:33.647Z,13.97
2019-01-17T23:25:00.685Z,14.20
2019-01-17T23:27:27.725Z,14.30
2019-01-17T23:29:55.028Z,14.53
2019-01-17T23:32:22.080Z,12.97
2019-01-17T23:34:49.201Z,13.40
2019-01-17T23:40:47.780Z,12.87
2019-01-17T23:43:14.943Z,13.40
2019-01-17T23:45:42.027Z,13.67
2019-01-17T23:48:09.074Z,13.47
2019-01-17T23:50:36.219Z,13.47
2019-01-17T23:53:04.174Z,12.40
2019-01-17T23:55:31.243Z,13.53
2019-01-17T23:57:58.271Z,11.80
